Time;durP1;ratioP1;P1;durP2;ratioP2;P2;SDS_P1;SDS_P2;PMS_P1;PMS_P2;Temp;Humidity;BMP_temperature;BMP_pressure;BME280_temperature;BME280_humidity;BME280_pressure;Samples;Min_cycle;Max_cycle;Signal;HPM_P1;HPM_P2
2023/07/03 00:00:56;;;;;;;0.63;0.63;;;;;;;16.06;80.99;99220.22;5114057;28;20036;-69
2023/07/03 00:03:27;;;;;;;0.63;0.63;;;;;;;16.00;81.22;99221.22;5113730;28;20127;-69
2023/07/03 00:05:57;;;;;;;0.50;0.50;;;;;;;16.04;81.20;99217.69;5114142;28;20092;-69
2023/07/03 00:08:26;;;;;;;2.03;1.57;;;;;;;16.00;80.91;99221.22;5113794;28;20070;-69
2023/07/03 00:11:01;;;;;;;0.70;0.70;;;;;;;15.93;81.20;99219.72;5113712;28;20539;-69
2023/07/03 00:13:30;;;;;;;1.58;1.48;;;;;;;15.86;81.17;99223.38;5113968;28;20043;-69
2023/07/03 00:15:59;;;;;;;0.65;0.65;;;;;;;15.81;81.19;99220.09;5111821;28;20429;-69
2023/07/03 00:18:30;;;;;;;;;;;;;;;15.79;80.92;99226.16;5113995;28;20052;-69
2023/07/03 00:20:59;;;;;;;0.80;0.80;;;;;;;15.63;80.78;99220.63;5113594;28;20369;-69
2023/07/03 00:23:28;;;;;;;0.95;0.73;;;;;;;15.57;80.89;99220.81;5113489;28;20044;-69
2023/07/03 00:25:57;;;;;;;0.60;0.60;;;;;;;15.63;81.41;99228.34;5113635;28;20070;-69
2023/07/03 00:28:26;;;;;;;1.53;0.90;;;;;;;15.53;81.28;99226.91;5113866;28;20438;-69
2023/07/03 00:30:55;;;;;;;1.10;0.98;;;;;;;15.58;81.18;99232.78;5113421;28;20096;-69
2023/07/03 00:33:24;;;;;;;0.80;0.80;;;;;;;15.58;80.99;99231.94;5112269;28;20044;-70
2023/07/03 00:35:54;;;;;;;0.47;0.47;;;;;;;15.61;81.00;99229.28;5113458;28;20509;-69
2023/07/03 00:38:23;;;;;;;1.55;0.90;;;;;;;15.55;80.58;99232.03;5113836;28;20445;-70
2023/07/03 00:40:52;;;;;;;1.65;1.08;;;;;;;15.37;80.80;99235.91;5113731;28;20062;-70
2023/07/03 00:43:22;;;;;;;3.08;0.73;;;;;;;15.33;80.96;99236.91;5113665;28;20043;-70
2023/07/03 00:45:52;;;;;;;2.08;1.30;;;;;;;15.44;81.06;99240.00;5113596;28;20382;-70
2023/07/03 00:48:22;;;;;;;0.57;0.57;;;;;;;15.48;80.73;99241.63;5113394;28;20126;-70
2023/07/03 00:50:51;;;;;;;1.23;1.13;;;;;;;15.45;80.71;99243.47;5115168;28;20393;-70
2023/07/03 00:53:21;;;;;;;0.63;0.63;;;;;;;15.46;81.20;99243.41;5117074;28;20457;-70
2023/07/03 00:55:50;;;;;;;2.78;2.17;;;;;;;15.50;81.31;99245.00;5116320;28;20048;-70
2023/07/03 00:58:20;;;;;;;1.23;1.13;;;;;;;15.55;81.44;99256.00;5115698;28;20055;-70
2023/07/03 01:00:56;;;;;;;0.95;0.75;;;;;;;15.53;80.86;99256.94;5116828;28;20044;-70
2023/07/03 01:03:32;;;;;;;2.53;0.98;;;;;;;15.52;80.77;99247.53;5115500;28;20105;-70
2023/07/03 01:06:05;;;;;;;1.27;1.17;;;;;;;15.52;80.77;99248.41;5116961;28;20047;-70
2023/07/03 01:08:37;;;;;;;2.17;0.85;;;;;;;15.55;80.63;99245.72;5115483;28;20108;-70
2023/07/03 01:11:07;;;;;;;1.15;1.05;;;;;;;15.47;80.70;99245.09;5115740;28;20051;-70
2023/07/03 01:13:38;;;;;;;4.85;1.10;;;;;;;15.49;81.01;99248.47;5115387;28;20062;-70
2023/07/03 01:16:09;;;;;;;0.98;0.90;;;;;;;15.41;80.64;99243.50;5116495;28;20055;-70
2023/07/03 01:18:39;;;;;;;0.47;0.47;;;;;;;15.40;80.87;99248.69;5116732;28;20051;-70
2023/07/03 01:21:15;;;;;;;0.75;0.75;;;;;;;15.43;80.59;99251.16;5116749;28;20051;-70
2023/07/03 01:23:53;;;;;;;0.75;0.75;;;;;;;15.34;80.39;99243.72;5115197;28;20046;-70
2023/07/03 01:26:25;;;;;;;1.60;1.30;;;;;;;15.25;80.70;99246.53;5115897;28;20060;-70
2023/07/03 01:28:58;;;;;;;1.30;1.20;;;;;;;15.21;80.83;99247.50;5115256;28;20392;-70
2023/07/03 01:31:31;;;;;;;0.85;0.70;;;;;;;15.25;80.70;99239.66;5116325;28;20077;-70
2023/07/03 01:34:02;;;;;;;1.85;1.45;;;;;;;15.36;80.68;99252.22;5115087;28;20093;-70
2023/07/03 01:36:32;;;;;;;0.60;0.60;;;;;;;15.45;80.16;99251.19;5114973;28;20052;-70
2023/07/03 01:39:03;;;;;;;1.92;1.25;;;;;;;15.55;79.85;99242.31;5116682;28;20473;-70
2023/07/03 01:41:36;;;;;;;1.17;1.00;;;;;;;15.58;79.50;99242.22;5114866;28;20035;-70
2023/07/03 01:44:06;;;;;;;0.50;0.50;;;;;;;15.54;79.13;99236.34;5115999;28;20043;-70
2023/07/03 01:46:35;;;;;;;1.35;1.00;;;;;;;15.52;78.70;99234.69;5115922;28;20063;-70
2023/07/03 01:49:04;;;;;;;0.95;0.88;;;;;;;15.35;79.25;99240.25;5115831;28;20047;-70
2023/07/03 01:51:38;;;;;;;1.20;1.10;;;;;;;15.26;78.97;99241.34;5114651;28;20043;-70
2023/07/03 01:54:13;;;;;;;1.17;0.60;;;;;;;15.33;78.93;99242.03;5115771;28;20083;-70
2023/07/03 01:56:49;;;;;;;0.55;0.55;;;;;;;15.41;78.91;99234.94;5115700;28;20048;-70
2023/07/03 01:59:24;;;;;;;1.52;1.30;;;;;;;15.54;78.05;99238.91;5114536;28;20520;-70
2023/07/03 02:02:00;;;;;;;1.67;1.40;;;;;;;15.40;77.65;99238.41;5116125;28;20100;-70
2023/07/03 02:04:35;;;;;;;1.27;0.90;;;;;;;15.40;78.22;99238.41;5114413;28;20047;-70
2023/07/03 02:07:06;;;;;;;2.75;1.58;;;;;;;15.44;77.47;99245.16;5115473;28;20047;-70
2023/07/03 02:09:36;;;;;;;1.23;1.05;;;;;;;15.39;77.48;99236.72;5115524;28;20048;-70
2023/07/03 02:12:09;;;;;;;0.95;0.90;;;;;;;15.40;77.74;99233.28;5114312;28;20126;-70
2023/07/03 02:14:41;;;;;;;0.90;0.88;;;;;;;15.46;77.47;99230.53;5114291;28;20048;-70
2023/07/03 02:17:10;;;;;;;0.35;0.35;;;;;;;15.47;77.42;99234.81;5114092;28;20040;-70
2023/07/03 02:19:39;;;;;;;0.70;0.70;;;;;;;15.33;77.36;99229.19;5114028;28;20044;-70
2023/07/03 02:22:08;;;;;;;0.93;0.88;;;;;;;15.34;77.40;99238.56;5115483;28;20047;-70
2023/07/03 02:24:39;;;;;;;0.95;0.80;;;;;;;15.36;77.12;99247.06;5115075;28;20043;-71
2023/07/03 02:27:09;;;;;;;0.50;0.50;;;;;;;15.30;76.86;99242.13;5114892;28;20096;-70
2023/07/03 02:29:39;;;;;;;0.75;0.60;;;;;;;15.17;76.77;99245.88;5115423;28;20040;-70
2023/07/03 02:32:11;;;;;;;0.53;0.53;;;;;;;15.17;77.54;99253.59;5113865;28;20043;-70
2023/07/03 02:34:42;;;;;;;1.92;1.80;;;;;;;15.14;77.35;99251.94;5114963;28;20287;-70
2023/07/03 02:37:13;;;;;;;1.42;1.08;;;;;;;15.09;77.32;99245.25;5113965;28;20119;-70
2023/07/03 02:39:42;;;;;;;0.75;0.75;;;;;;;15.05;77.36;99243.63;5114973;28;20050;-70
2023/07/03 02:42:14;;;;;;;1.08;0.98;;;;;;;14.97;77.32;99243.00;5115376;28;20393;-70
2023/07/03 02:44:43;;;;;;;2.60;1.40;;;;;;;15.01;77.33;99244.59;5113548;28;20039;-70
2023/07/03 02:47:12;;;;;;;1.50;0.90;;;;;;;15.04;77.17;99237.66;5115032;28;20440;-70
2023/07/03 02:49:41;;;;;;;0.57;0.57;;;;;;;15.00;77.12;99248.88;5113589;28;20074;-70
2023/07/03 02:52:10;;;;;;;;;;;;;;;15.03;77.36;99247.97;5115475;28;20447;-70
2023/07/03 02:54:40;;;;;;;1.60;1.17;;;;;;;15.04;77.08;99258.22;5114928;28;19942;-70
2023/07/03 02:57:10;;;;;;;0.75;0.70;;;;;;;14.97;77.07;99251.53;5114860;28;20489;-70
2023/07/03 02:59:40;;;;;;;0.65;0.65;;;;;;;14.96;76.94;99241.28;5114675;28;20040;-70
2023/07/03 03:02:10;;;;;;;6.43;1.40;;;;;;;15.01;77.08;99249.75;5113323;28;20082;-70
2023/07/03 03:04:38;;;;;;;0.50;0.50;;;;;;;14.98;76.99;99244.66;5114394;28;20401;-70
2023/07/03 03:07:08;;;;;;;1.10;1.00;;;;;;;15.01;77.08;99254.88;5114586;28;20330;-70
2023/07/03 03:09:36;;;;;;;1.02;0.93;;;;;;;15.02;76.94;99248.88;5114359;28;20040;-70
2023/07/03 03:12:06;;;;;;;1.52;0.65;;;;;;;15.02;77.00;99251.44;5113118;28;20562;-70
2023/07/03 03:14:35;;;;;;;1.25;0.77;;;;;;;14.99;77.04;99251.50;5112733;28;20074;-70
2023/07/03 03:17:06;;;;;;;0.75;0.75;;;;;;;14.91;76.74;99258.56;5113073;28;20401;-70
2023/07/03 03:19:35;;;;;;;1.15;0.90;;;;;;;14.76;77.37;99260.63;5114235;28;20127;-70
2023/07/03 03:22:04;;;;;;;1.77;1.13;;;;;;;14.72;77.14;99261.59;5113163;28;20044;-70
2023/07/03 03:24:34;;;;;;;2.08;1.30;;;;;;;14.73;77.96;99265.00;5112911;28;20044;-70
2023/07/03 03:27:06;;;;;;;2.53;1.05;;;;;;;14.52;77.86;99261.19;5114059;28;20063;-70
2023/07/03 03:29:38;;;;;;;0.57;0.57;;;;;;;14.47;78.20;99262.19;5114149;28;20093;-70
2023/07/03 03:32:09;;;;;;;1.13;1.05;;;;;;;14.58;78.42;99271.34;5112916;28;20047;-70
2023/07/03 03:34:39;;;;;;;0.73;0.73;;;;;;;14.51;78.66;99259.53;5114026;28;20501;-70
2023/07/03 03:37:07;;;;;;;0.82;0.82;;;;;;;14.56;79.05;99272.25;5113124;28;20136;-69
2023/07/03 03:39:38;;;;;;;1.83;1.30;;;;;;;14.51;78.88;99264.66;5112805;28;20051;-70
2023/07/03 03:42:09;;;;;;;0.75;0.65;;;;;;;14.52;79.48;99266.34;5114235;28;20475;-70
2023/07/03 03:44:38;;;;;;;5.00;1.00;;;;;;;14.56;79.26;99265.41;5113895;28;20044;-70
2023/07/03 03:47:09;;;;;;;2.08;1.20;;;;;;;14.59;79.70;99262.75;5112797;28;20048;-70
2023/07/03 03:49:39;;;;;;;1.27;1.10;;;;;;;14.62;79.77;99266.97;5112737;28;20047;-70
2023/07/03 03:52:09;;;;;;;1.40;1.30;;;;;;;14.77;79.91;99282.03;5114233;28;20089;-70
2023/07/03 03:54:38;;;;;;;1.98;1.15;;;;;;;14.98;79.12;99271.22;5113796;28;20073;-70
2023/07/03 03:57:07;;;;;;;0.88;0.82;;;;;;;15.03;79.02;99268.53;5112870;28;20036;-70
2023/07/03 03:59:37;;;;;;;0.57;0.55;;;;;;;15.15;78.72;99275.94;5114026;28;20044;-70
2023/07/03 04:02:06;;;;;;;0.90;0.90;;;;;;;15.30;78.17;99278.09;5113815;28;20044;-70
2023/07/03 04:04:36;;;;;;;0.45;0.45;;;;;;;15.36;78.12;99277.94;5114065;28;20283;-70
2023/07/03 04:07:06;;;;;;;1.63;1.15;;;;;;;15.46;77.58;99284.56;5113638;28;20040;-69
2023/07/03 04:09:35;;;;;;;;;;;;;;;15.56;77.48;99280.00;5114362;28;20039;-70
2023/07/03 04:12:05;;;;;;;5.30;1.63;;;;;;;15.66;77.20;99284.03;5113659;28;19920;-70
2023/07/03 04:14:33;;;;;;;;;;;;;;;15.70;76.48;99273.59;5114297;28;20454;-70
2023/07/03 04:17:02;;;;;;;1.27;0.95;;;;;;;15.74;76.64;99280.34;5113600;28;19920;-70
2023/07/03 04:19:31;;;;;;;0.93;0.82;;;;;;;15.80;76.54;99287.91;5113588;28;20047;-70
2023/07/03 04:22:01;;;;;;;0.33;0.33;;;;;;;15.89;76.45;99290.22;5113873;28;20123;-70
2023/07/03 04:24:30;;;;;;;2.22;1.35;;;;;;;15.96;76.27;99293.44;5113668;28;20131;-69
2023/07/03 04:26:59;;;;;;;0.63;0.63;;;;;;;15.93;75.92;99285.84;5116371;28;20055;-68
2023/07/03 04:29:28;;;;;;;1.25;0.93;;;;;;;15.95;75.89;99295.19;5117487;28;20043;-68
2023/07/03 04:31:57;;;;;;;6.50;0.63;;;;;;;16.04;75.73;99305.22;5117410;28;20043;-68
2023/07/03 04:34:26;;;;;;;1.35;1.17;;;;;;;16.13;75.83;99298.09;5117370;28;20044;-68
2023/07/03 04:36:55;;;;;;;1.10;1.00;;;;;;;16.25;75.99;99292.59;5117229;28;20066;-68
2023/07/03 04:39:25;;;;;;;0.50;0.50;;;;;;;16.41;75.59;99299.00;5117343;28;20039;-67
2023/07/03 04:41:56;;;;;;;0.65;0.65;;;;;;;16.55;75.50;99296.88;5117162;28;20550;-67
2023/07/03 04:44:25;;;;;;;8.68;1.00;;;;;;;16.73;75.02;99293.69;5117232;28;20578;-67
2023/07/03 04:46:55;;;;;;;0.70;0.70;;;;;;;16.83;74.67;99301.97;5116990;28;20089;-67
2023/07/03 04:49:26;;;;;;;0.57;0.57;;;;;;;16.84;74.16;99304.53;5117239;28;20039;-66
2023/07/03 04:51:55;;;;;;;1.08;0.90;;;;;;;16.90;74.32;99309.47;5117295;28;20544;-66
2023/07/03 04:54:27;;;;;;;0.93;0.67;;;;;;;17.01;74.09;99304.78;5116912;28;20048;-66
2023/07/03 04:56:57;;;;;;;0.75;0.75;;;;;;;17.17;74.08;99313.75;5116949;28;20493;-66
2023/07/03 04:59:26;;;;;;;4.35;1.45;;;;;;;17.28;73.87;99321.94;5116883;28;20054;-66
2023/07/03 05:01:55;;;;;;;0.77;0.77;;;;;;;17.51;73.97;99322.91;5117027;28;20489;-66
2023/07/03 05:04:24;;;;;;;0.85;0.85;;;;;;;17.71;73.37;99323.06;5117353;28;20135;-66
2023/07/03 05:06:53;;;;;;;0.67;0.67;;;;;;;17.72;72.79;99319.59;5116576;28;20043;-66
2023/07/03 05:09:22;;;;;;;1.10;0.88;;;;;;;17.76;72.55;99324.59;5116688;28;20276;-66
2023/07/03 05:11:54;;;;;;;1.10;1.00;;;;;;;17.88;72.09;99323.31;5116773;28;20074;-66
2023/07/03 05:14:23;;;;;;;0.80;0.80;;;;;;;17.99;72.35;99326.38;5116869;28;20482;-67
2023/07/03 05:16:51;;;;;;;0.50;0.43;;;;;;;18.21;72.12;99332.41;5116545;28;20041;-66
2023/07/03 05:19:20;;;;;;;0.70;0.70;;;;;;;18.28;71.80;99327.88;5116435;28;20290;-66
2023/07/03 05:21:49;;;;;;;1.33;1.23;;;;;;;18.40;71.75;99336.03;5116682;27;20060;-66
2023/07/03 05:24:18;;;;;;;1.48;1.30;;;;;;;18.49;71.25;99333.13;5117040;28;20051;-65
2023/07/03 05:26:47;;;;;;;0.77;0.77;;;;;;;18.57;70.92;99333.63;5116055;28;20051;-65
2023/07/03 05:29:17;;;;;;;2.50;1.00;;;;;;;18.61;70.43;99342.97;5116258;28;20055;-66
2023/07/03 05:31:46;;;;;;;4.22;1.10;;;;;;;18.78;70.09;99333.72;5116468;28;20321;-66
2023/07/03 05:34:15;;;;;;;0.82;0.73;;;;;;;18.75;69.54;99334.69;5116241;28;20040;-66
2023/07/03 05:36:44;;;;;;;0.45;0.45;;;;;;;18.72;69.20;99340.81;5115956;28;20560;-65
2023/07/03 05:39:13;;;;;;;0.75;0.75;;;;;;;18.86;68.88;99342.03;5116080;28;20118;-66
2023/07/03 05:41:42;;;;;;;0.75;0.75;;;;;;;19.04;68.77;99333.50;5116215;28;20044;-66
2023/07/03 05:44:11;;;;;;;0.82;0.60;;;;;;;19.19;68.44;99343.25;5115936;28;20092;-65
2023/07/03 05:46:41;;;;;;;2.53;1.50;;;;;;;19.29;68.42;99341.97;5116222;28;20042;-65
2023/07/03 05:49:11;;;;;;;0.77;0.77;;;;;;;19.45;68.00;99355.97;5116197;28;20512;-66
2023/07/03 05:51:41;;;;;;;1.10;1.00;;;;;;;19.51;67.67;99353.13;5115825;28;20044;-66
2023/07/03 05:54:09;;;;;;;1.10;0.97;;;;;;;19.65;66.97;99355.97;5115757;28;20075;-66
2023/07/03 05:56:38;;;;;;;2.15;1.67;;;;;;;19.74;66.63;99350.41;5101692;28;20651;-66
2023/07/03 05:59:08;;;;;;;0.98;0.90;;;;;;;19.74;66.34;99350.41;5108883;28;20043;-66
2023/07/03 06:01:37;;;;;;;;;;;;;;;19.86;66.71;99360.25;5116342;28;20036;-66
2023/07/03 06:04:11;;;;;;;0.65;0.65;;;;;;;19.98;66.63;99354.53;5115922;28;20027;-67
2023/07/03 06:06:41;;;;;;;0.95;0.70;;;;;;;20.12;66.19;99356.50;5111510;28;20083;-66
2023/07/03 06:09:09;;;;;;;1.65;1.45;;;;;;;20.25;65.70;99351.63;5095222;28;20040;-66
2023/07/03 06:11:38;;;;;;;1.30;1.02;;;;;;;20.39;65.35;99352.69;5095102;28;20101;-67
2023/07/03 06:14:15;;;;;;;1.20;1.10;;;;;;;20.39;64.73;99360.47;5095315;28;20044;-66
2023/07/03 06:16:44;;;;;;;2.83;1.58;;;;;;;20.47;64.55;99352.31;5097874;28;20040;-66
2023/07/03 06:19:16;;;;;;;1.02;0.85;;;;;;;20.57;64.03;99359.63;5094921;28;20067;-66
2023/07/03 06:21:45;;;;;;;1.80;1.50;;;;;;;20.71;63.85;99366.75;5094786;28;20048;-67
2023/07/03 06:24:15;;;;;;;0.98;0.98;;;;;;;20.65;63.56;99367.03;5095033;28;20044;-67
2023/07/03 06:26:45;;;;;;;2.20;1.30;;;;;;;20.80;64.10;99366.34;5098880;28;20186;-67
2023/07/03 06:29:14;;;;;;;2.83;1.00;;;;;;;20.97;63.49;99363.75;5103973;28;20508;-67
2023/07/03 06:31:43;;;;;;;0.68;0.68;;;;;;;21.05;63.01;99366.84;5094706;28;20040;-67
2023/07/03 06:34:12;;;;;;;2.85;1.38;;;;;;;21.25;62.67;99371.94;5094869;28;20497;-66
2023/07/03 06:36:42;;;;;;;1.30;1.20;;;;;;;21.36;61.93;99364.44;5103192;28;20039;-66
2023/07/03 06:39:11;;;;;;;4.25;1.13;;;;;;;21.52;61.85;99366.28;5115035;28;20139;-68
2023/07/03 06:41:40;;;;;;;2.03;1.85;;;;;;;21.59;61.82;99362.47;5107424;28;20043;-67
2023/07/03 06:44:14;;;;;;;0.47;0.47;;;;;;;21.78;61.75;99365.81;5093935;28;20560;-67
2023/07/03 06:46:44;;;;;;;1.33;1.23;;;;;;;21.94;61.09;99359.75;5094571;28;20032;-67
2023/07/03 06:49:14;;;;;;;1.23;0.88;;;;;;;22.00;60.81;99358.63;5093231;28;20127;-68
2023/07/03 06:51:44;;;;;;;1.45;1.17;;;;;;;22.08;59.86;99361.63;5094195;28;20136;-67
2023/07/03 06:54:13;;;;;;;6.93;4.00;;;;;;;22.17;59.33;99363.75;5094175;28;20043;-67
2023/07/03 06:56:42;;;;;;;3.47;1.45;;;;;;;22.31;58.79;99360.44;5094513;28;20135;-67
2023/07/03 06:59:11;;;;;;;1.13;1.00;;;;;;;22.44;58.41;99359.66;5102922;28;20036;-68
2023/07/03 07:01:40;;;;;;;1.75;0.80;;;;;;;22.46;57.57;99363.03;5107535;28;20040;-67
2023/07/03 07:04:10;;;;;;;1.30;0.88;;;;;;;22.49;57.27;99362.03;5094248;28;20048;-67
2023/07/03 07:06:39;;;;;;;;;;;;;;;22.59;56.94;99366.66;5094687;28;20036;-67
2023/07/03 07:09:09;;;;;;;;;;;;;;;22.73;56.69;99368.53;5101807;28;19920;-68
2023/07/03 07:11:38;;;;;;;1.70;0.98;;;;;;;22.80;56.58;99361.19;5114667;28;19920;-67
2023/07/03 07:14:07;;;;;;;0.97;0.73;;;;;;;22.95;56.27;99365.56;5114536;28;20379;-67
2023/07/03 07:16:37;;;;;;;0.63;0.63;;;;;;;23.05;56.05;99359.75;5114672;28;20283;-68
2023/07/03 07:19:09;;;;;;;0.90;0.90;;;;;;;23.14;55.63;99361.00;5111062;28;20111;-67
2023/07/03 07:21:41;;;;;;;1.02;0.80;;;;;;;23.24;55.79;99356.94;5108086;28;20043;-68
2023/07/03 07:24:16;;;;;;;0.82;0.82;;;;;;;23.34;55.52;99360.69;5094050;28;20048;-68
2023/07/03 07:26:46;;;;;;;0.70;0.70;;;;;;;23.45;55.05;99347.91;5093667;28;20052;-68
2023/07/03 07:29:15;;;;;;;9.63;2.67;;;;;;;23.55;54.16;99362.09;5093642;28;20067;-68
2023/07/03 07:31:44;;;;;;;0.63;0.63;;;;;;;23.72;54.18;99354.13;5094076;28;20036;-67
2023/07/03 07:34:13;;;;;;;1.42;0.90;;;;;;;23.64;53.50;99347.66;5093456;28;20555;-69
2023/07/03 07:36:43;;;;;;;1.35;0.60;;;;;;;23.72;52.88;99354.13;5102601;28;20032;-68
2023/07/03 07:39:12;;;;;;;0.60;0.60;;;;;;;23.79;52.74;99350.22;5109168;28;20057;-68
2023/07/03 07:41:42;;;;;;;2.17;1.90;;;;;;;23.96;53.36;99347.44;5101235;28;20039;-68
2023/07/03 07:44:11;;;;;;;0.60;0.60;;;;;;;23.96;51.68;99344.81;5093332;28;20297;-66
2023/07/03 07:46:40;;;;;;;0.82;0.82;;;;;;;23.98;51.05;99337.75;5104435;28;20047;-68
2023/07/03 07:49:09;;;;;;;;;;;;;;;23.98;50.82;99345.56;5114262;28;20043;-68
2023/07/03 07:51:39;;;;;;;0.90;0.83;;;;;;;24.09;49.91;99337.09;5112760;28;19920;-69
2023/07/03 07:54:07;;;;;;;0.68;0.68;;;;;;;24.24;49.73;99335.31;5112796;28;20043;-68
2023/07/03 07:56:36;;;;;;;0.70;0.70;;;;;;;24.52;50.10;99336.09;5113968;28;20378;-68
2023/07/03 07:59:07;;;;;;;0.60;0.60;;;;;;;24.63;49.97;99343.28;5112847;28;20043;-68
2023/07/03 08:01:36;;;;;;;0.68;0.68;;;;;;;24.51;48.74;99333.59;5118443;28;20099;-67
2023/07/03 08:04:05;;;;;;;1.02;0.90;;;;;;;24.66;48.49;99337.88;5098885;28;20050;-69
2023/07/03 08:06:34;;;;;;;1.15;0.65;;;;;;;24.90;47.89;99340.69;5097419;28;20058;-68
2023/07/03 08:09:04;;;;;;;0.85;0.80;;;;;;;25.07;47.39;99333.47;5097293;28;20505;-69
2023/07/03 08:11:32;;;;;;;0.75;0.75;;;;;;;25.26;46.70;99339.16;5098279;28;20046;-68
2023/07/03 08:14:01;;;;;;;0.50;0.50;;;;;;;25.24;44.87;99333.16;5097589;28;20101;-68
2023/07/03 08:16:31;;;;;;;1.75;1.05;;;;;;;25.33;44.06;99333.50;5095821;28;20040;-68
2023/07/03 08:19:00;;;;;;;1.27;1.15;;;;;;;25.29;44.36;99328.47;5097355;28;20048;-68
2023/07/03 08:21:29;;;;;;;0.60;0.60;;;;;;;25.37;43.88;99334.97;5098534;28;20124;-69
2023/07/03 08:23:58;;;;;;;0.80;0.80;;;;;;;25.42;43.59;99333.72;5100993;28;20035;-69
2023/07/03 08:26:27;;;;;;;1.75;1.00;;;;;;;25.44;43.32;99336.22;5113760;28;20435;-67
2023/07/03 08:28:56;;;;;;;0.90;0.85;;;;;;;25.55;43.52;99337.22;5097179;28;20032;-68
2023/07/03 08:31:25;;;;;;;0.50;0.50;;;;;;;25.68;43.42;99329.38;5101046;28;20066;-69
2023/07/03 08:33:58;;;;;;;0.65;0.65;;;;;;;25.77;43.15;99326.16;5117581;28;20389;-68
2023/07/03 08:36:27;;;;;;;0.55;0.55;;;;;;;25.94;42.72;99331.03;5117645;28;20439;-68
2023/07/03 08:39:01;;;;;;;1.50;0.85;;;;;;;26.10;42.55;99325.59;5117446;28;20043;-69
2023/07/03 08:41:32;;;;;;;0.35;0.35;;;;;;;26.12;41.46;99324.56;5114713;28;20047;-69
2023/07/03 08:44:02;;;;;;;0.50;0.50;;;;;;;26.22;41.42;99322.16;5110741;28;20456;-68
2023/07/03 08:46:34;;;;;;;0.63;0.63;;;;;;;26.31;41.09;99319.72;5117022;28;20048;-67
2023/07/03 08:49:05;;;;;;;1.10;0.70;;;;;;;26.36;40.87;99322.84;5117331;28;20554;-66
2023/07/03 08:51:38;;;;;;;0.85;0.57;;;;;;;26.48;40.76;99321.97;5115976;28;20455;-69
2023/07/03 08:54:16;;;;;;;1.10;0.85;;;;;;;26.60;39.97;99321.09;5096592;28;20056;-68
2023/07/03 08:56:45;;;;;;;0.60;0.60;;;;;;;26.68;39.60;99317.09;5107410;28;20046;-68
2023/07/03 08:59:13;;;;;;;0.65;0.63;;;;;;;26.83;39.92;99315.97;5097619;28;20070;-67
2023/07/03 09:01:49;;;;;;;0.40;0.40;;;;;;;26.86;39.28;99310.53;5096695;28;20581;-68
2023/07/03 09:04:38;;;;;;;0.40;0.40;;;;;;;26.99;38.93;99303.44;5116800;28;20051;-67
2023/07/03 09:07:14;;;;;;;0.38;0.38;;;;;;;27.03;38.59;99317.97;5116803;28;20085;-69
2023/07/03 09:09:50;;;;;;;0.73;0.65;;;;;;;27.04;38.24;99307.38;5104441;28;20063;-68
2023/07/03 09:12:25;;;;;;;0.82;0.82;;;;;;;27.09;38.80;99313.13;5093809;28;20044;-68
2023/07/03 09:14:59;;;;;;;0.60;0.60;;;;;;;27.07;38.62;99308.94;5096074;28;20051;-68
2023/07/03 09:17:34;;;;;;;5.25;1.48;;;;;;;27.22;38.27;99307.81;5094788;28;20428;-69
2023/07/03 09:20:07;;;;;;;1.30;0.73;;;;;;;27.39;38.37;99310.03;5096828;28;20040;-69
2023/07/03 09:22:46;;;;;;;0.65;0.65;;;;;;;27.65;38.75;99316.75;5096050;28;20094;-68
2023/07/03 09:25:21;;;;;;;1.40;1.30;;;;;;;27.71;38.65;99310.22;5100162;28;20039;-71
2023/07/03 09:27:55;;;;;;;0.68;0.68;;;;;;;27.36;38.56;99320.72;5095793;28;20048;-67
2023/07/03 09:30:24;;;;;;;1.58;0.85;;;;;;;27.37;38.06;99319.78;5095933;28;20105;-68
2023/07/03 09:32:53;;;;;;;1.45;1.35;;;;;;;27.36;38.57;99319.88;5096119;28;20040;-70
2023/07/03 09:35:24;;;;;;;0.68;0.60;;;;;;;27.40;38.39;99316.97;5106340;28;20505;-68
2023/07/03 09:38:01;;;;;;;0.55;0.55;;;;;;;27.54;38.70;99314.13;5116133;28;20055;-69
2023/07/03 09:40:34;;;;;;;1.55;1.25;;;;;;;27.61;38.67;99315.31;5116370;28;20040;-69
2023/07/03 09:43:04;;;;;;;0.80;0.63;;;;;;;27.64;38.76;99315.06;5116013;28;20054;-68
2023/07/03 09:45:35;;;;;;;0.55;0.55;;;;;;;27.42;38.84;99320.28;5110586;28;20047;-68
2023/07/03 09:48:12;;;;;;;0.55;0.55;;;;;;;27.30;38.65;99320.34;5115907;28;20047;-69
2023/07/03 09:50:43;;;;;;;0.60;0.60;;;;;;;27.10;38.41;99329.69;5116004;27;20052;-69
2023/07/03 09:53:32;;;;;;;1.05;0.82;;;;;;;26.91;39.30;99324.97;5115840;28;20031;-70
2023/07/03 09:56:02;;;;;;;4.65;1.23;;;;;;;27.03;39.57;99320.59;5114721;28;20097;-67
2023/07/03 09:58:31;;;;;;;0.98;0.93;;;;;;;27.31;40.23;99322.84;5116354;28;20067;-68
2023/07/03 10:01:00;;;;;;;1.20;1.10;;;;;;;27.33;40.35;99326.16;5115781;28;20398;-69
2023/07/03 10:03:32;;;;;;;1.05;0.80;;;;;;;27.29;40.61;99319.50;5115831;28;20055;-70
2023/07/03 10:06:14;;;;;;;0.90;0.85;;;;;;;27.42;40.06;99312.44;5114111;28;20122;-72
2023/07/03 10:08:52;;;;;;;2.45;1.48;;;;;;;27.79;40.50;99321.78;5094997;28;20127;-69
2023/07/03 10:11:33;;;;;;;1.27;1.05;;;;;;;28.21;40.22;99311.53;5108596;28;20063;-69
2023/07/03 10:14:04;;;;;;;0.93;0.83;;;;;;;28.33;40.15;99319.28;5116024;28;20424;-68
2023/07/03 10:16:34;;;;;;;0.75;0.75;;;;;;;28.19;39.14;99308.22;5094778;28;20048;-68
2023/07/03 10:19:04;;;;;;;2.28;1.27;;;;;;;27.91;38.79;99310.31;5095279;28;20424;-65
2023/07/03 10:21:35;;;;;;;1.48;1.38;;;;;;;28.01;39.26;99301.75;5094873;28;20059;-67
2023/07/03 10:24:05;;;;;;;6.95;1.23;;;;;;;27.96;39.14;99309.13;5094812;28;20044;-65
2023/07/03 10:26:40;;;;;;;1.45;1.35;;;;;;;27.90;39.65;99305.22;5101573;28;20048;-68
2023/07/03 10:29:16;;;;;;;1.23;1.13;;;;;;;28.22;40.27;99305.34;5094992;28;20075;-66
2023/07/03 10:31:51;;;;;;;0.80;0.80;;;;;;;28.55;39.67;99313.16;5094792;28;20044;-66
2023/07/03 10:34:25;;;;;;;0.95;0.88;;;;;;;28.47;39.68;99310.31;5094716;28;20448;-69
2023/07/03 10:37:01;;;;;;;1.25;1.13;;;;;;;28.14;39.61;99305.94;5114917;28;20557;-66
2023/07/03 10:39:42;;;;;;;1.25;1.10;;;;;;;28.12;39.75;99309.66;5101606;28;20086;-67
2023/07/03 10:42:25;;;;;;;1.40;1.27;;;;;;;28.03;39.76;99305.09;5101720;28;20478;-68
2023/07/03 10:45:00;;;;;;;1.40;1.30;;;;;;;27.88;39.75;99307.13;5094452;28;20494;-67
2023/07/03 10:47:37;;;;;;;5.63;1.80;;;;;;;27.92;40.28;99304.13;5094741;28;20490;-67
2023/07/03 10:50:09;;;;;;;1.45;1.35;;;;;;;27.77;41.01;99300.06;5094254;28;20097;-66
2023/07/03 10:52:48;;;;;;;4.75;1.33;;;;;;;27.69;41.41;99306.88;5097202;28;20062;-68
2023/07/03 10:55:26;;;;;;;1.40;1.23;;;;;;;27.78;41.32;99301.75;5115561;28;20050;-68
2023/07/03 10:58:04;;;;;;;2.33;1.30;;;;;;;27.66;40.30;99292.22;5115125;28;20396;-67
2023/07/03 11:00:42;;;;;;;1.85;1.40;;;;;;;27.78;40.18;99296.50;5114601;28;20040;-67
2023/07/03 11:03:20;;;;;;;0.90;0.90;;;;;;;27.86;40.06;99304.59;5113576;28;20036;-67
2023/07/03 11:05:57;;;;;;;1.73;1.05;;;;;;;27.84;40.24;99301.25;5114697;28;20040;-67
2023/07/03 11:08:36;;;;;;;1.33;1.15;;;;;;;27.88;40.52;99307.94;5115032;28;20059;-69
2023/07/03 11:11:15;;;;;;;2.58;1.42;;;;;;;27.85;39.96;99304.72;5114408;28;20433;-68
2023/07/03 11:13:51;;;;;;;0.90;0.88;;;;;;;28.19;39.33;99301.19;5098443;28;20040;-66
2023/07/03 11:16:27;;;;;;;1.13;1.02;;;;;;;28.56;38.20;99297.25;5092702;28;20044;-68
2023/07/03 11:19:13;;;;;;;2.75;2.05;;;;;;;29.00;38.14;99296.31;5093947;28;20143;-67
2023/07/03 11:21:55;;;;;;;1.13;0.98;;;;;;;29.30;37.41;99294.75;5094436;28;20494;-68
2023/07/03 11:24:34;;;;;;;1.58;1.10;;;;;;;29.20;37.35;99290.25;5098848;28;20036;-68
2023/07/03 11:27:11;;;;;;;0.60;0.60;;;;;;;29.30;37.42;99286.88;5093612;28;20067;-70
2023/07/03 11:29:43;;;;;;;1.48;1.35;;;;;;;29.46;38.55;99292.50;5106399;28;20063;-70
2023/07/03 11:32:13;;;;;;;1.63;1.38;;;;;;;29.46;37.76;99292.50;5114062;28;20071;-68
2023/07/03 11:34:43;;;;;;;5.10;0.95;;;;;;;29.51;37.93;99288.53;5113718;28;20055;-68
2023/07/03 11:37:35;;;;;;;3.85;1.95;;;;;;;29.48;38.29;99301.09;5109390;28;20032;-69
2023/07/03 11:40:25;;;;;;;1.10;1.00;;;;;;;29.57;37.79;99287.16;5097742;28;20395;-67
2023/07/03 11:43:23;;;;;;;1.30;1.13;;;;;;;29.61;36.96;99289.38;5104492;28;20042;-66
2023/07/03 11:46:10;;;;;;;1.33;1.23;;;;;;;29.84;37.14;99287.47;5093866;28;20050;-67
2023/07/03 11:48:48;;;;;;;1.50;1.30;;;;;;;29.66;37.35;99289.00;5093778;28;20048;-68
2023/07/03 11:51:32;;;;;;;2.83;1.97;;;;;;;29.12;36.99;99297.91;5098937;28;20088;-69
2023/07/03 11:54:19;;;;;;;1.58;1.27;;;;;;;28.81;37.62;99293.53;5114541;28;20035;-67